Terminal Aerodrome Forecast
Issued by NWS Sterling, VA

Current Version | Previous Version | Graphics & Text | Print | Product List | Glossary On
Versions: 1 2 3 4 5 6 7 8 9 10 11 12
000
FTUS41 KLWX 290500
TAFMRB
TAF
KMRB 290530Z 2906/3006 30005KT P6SM SCT090
     FM291400 30009KT P6SM SCT090
     FM292300 32005KT P6SM FEW050=

USA.gov is the U.S. government's official web portal to all federal, state and local government web resources and services.